Spacecraft Satellite overpass computed based on SGP4 code. Updated every day at 2:25 LT
Spacecraft : Terra    
         GMT                             Satellite      Satellite     Solar          Solar         Scat ang       
  year-mo-da hr:mn:sc    elevation     azimuth    elevation   azimuth    (bk=180)     
  2019-10-16 09:19:01     57.3            101.0          29.9           163.1         129.7
  2019-10-16 10:56:25     22.5            299.7          30.7           191.0          86.6
  2019-10-16 18:52:07     17.1             57.0         -30.5           295.6        -999.0
  2019-10-16 20:29:18     80.3            255.9         -42.7           321.7        -999.0
  2019-10-16 22:07:48     11.3            274.5         -48.5           356.1        -999.0
Spacecraft : Aqua    
         GMT                             Satellite      Satellite     Solar          Solar         Scat ang       
  year-mo-da hr:mn:sc    elevation     azimuth    elevation   azimuth    (bk=180)     
  2019-10-15 23:54:06     31.2             95.3         -43.7            34.1        -999.0
  2019-10-16 01:31:54     38.0            293.7         -32.0            61.3        -999.0
  2019-10-16 09:27:48     10.1             50.7          30.3           165.5          74.4
  2019-10-16 11:04:35     56.5             70.2          30.4           193.3          99.3
  2019-10-16 12:42:40     21.0            268.6          23.4           219.4         134.6
  2019-10-16 22:58:29     10.3             84.7         -47.7            15.1        -999.0
Spacecraft : CALIPSO    
         GMT                             Satellite      Satellite     Solar          Solar         Scat ang       
  year-mo-da hr:mn:sc    elevation     azimuth    elevation   azimuth    (bk=180)     
  2019-10-16 00:45:28     61.6            101.7         -38.2            49.4        -999.0
  2019-10-16 02:22:28     20.7            300.4         -24.5            72.8        -999.0
  2019-10-16 10:16:30     17.2             57.4          31.3           179.5          73.7
  2019-10-16 11:53:22     77.7            256.2          27.7           206.8         125.2
  2019-10-16 13:31:33     10.6            274.7          17.8           230.8         136.9
  2019-10-16 23:45:11     18.6             90.4         -44.8            31.4        -999.0
Spacecraft : CloudSat    
         GMT                             Satellite      Satellite     Solar          Solar         Scat ang       
  year-mo-da hr:mn:sc    elevation     azimuth    elevation   azimuth    (bk=180)     
  2019-10-16 00:46:05     61.5            101.7         -38.1            49.6        -999.0
  2019-10-16 02:23:06     20.7            300.3         -24.4            72.9        -999.0
  2019-10-16 10:17:08     17.1             57.4          31.3           179.7          73.5
  2019-10-16 11:54:00     77.9            256.2          27.7           206.9         125.1
  2019-10-16 13:32:11     10.6            274.7          17.7           231.0         137.1
  2019-10-16 23:45:49     18.5             90.4         -44.7            31.6        -999.0
Spacecraft : ISS    
         GMT                             Satellite      Satellite     Solar          Solar         Scat ang       
  year-mo-da hr:mn:sc    elevation     azimuth    elevation   azimuth    (bk=180)     
  2019-10-16 08:08:43     30.1            147.1          24.9           144.3         174.2
  2019-10-16 09:45:15     83.2            345.9          30.9           170.5         114.1
  2019-10-16 11:22:08     66.7              5.8          29.6           198.2          96.9
  2019-10-16 12:58:52     53.1            205.5          21.6           223.3         145.7
  2019-10-16 14:35:02     12.4            223.3           9.2           244.3         159.1